SKW5953 KPHX-KNYL
Flight info
| Callsign | SKW5953 |
|---|---|
| Flight time | 0h 34m |
| Altitude | 16000 |
| Route | FYRBD1 MOHAK V66 BZA DCT |
| Aircraft | E170/M-SDE3GILORVW/S |
Departure
| Time | 2026-04-20 15:40 |
|---|---|
| Airport | Phoenix Sky Harbor International Airport (KPHX) |
Arrival
| Time | 2026-04-20 16:14 |
|---|---|
| Airport | Yuma International Airport / Marine Corps Air Station Yuma (KNYL) |
| Time | Latitude | Longitude | Altitude | Speed | Heading |
|---|---|---|---|---|---|
| 2026-04-20 15:19 | 33.43794 | -111.99983 | 1122 ft | 0 kts | 89° |
| 2026-04-20 15:31 | 33.43794 | -111.99996 | 1115 ft | 3 kts | 83° |
| 2026-04-20 15:31 | 33.43788 | -112.00020 | 1116 ft | 3 kts | 45° |
| 2026-04-20 15:31 | 33.43774 | -112.00030 | 1115 ft | 1 kts | 0° |
| 2026-04-20 15:32 | 33.43773 | -112.00030 | 1115 ft | 0 kts | 0° |
| 2026-04-20 15:34 | 33.43774 | -112.00030 | 1115 ft | 1 kts | 0° |
| 2026-04-20 15:35 | 33.43811 | -112.00030 | 1116 ft | 8 kts | 0° |
| 2026-04-20 15:35 | 33.43874 | -112.00031 | 1118 ft | 10 kts | 347° |
| 2026-04-20 15:35 | 33.43936 | -112.00072 | 1117 ft | 11 kts | 346° |
| 2026-04-20 15:35 | 33.43974 | -112.00137 | 1119 ft | 11 kts | 270° |
| 2026-04-20 15:36 | 33.43974 | -112.00252 | 1122 ft | 16 kts | 270° |
| 2026-04-20 15:36 | 33.43974 | -112.00395 | 1121 ft | 18 kts | 270° |
| 2026-04-20 15:36 | 33.43974 | -112.00555 | 1118 ft | 20 kts | 270° |
| 2026-04-20 15:36 | 33.43974 | -112.00724 | 1119 ft | 21 kts | 270° |
| 2026-04-20 15:37 | 33.43974 | -112.00900 | 1119 ft | 20 kts | 270° |
| 2026-04-20 15:37 | 33.43974 | -112.01070 | 1120 ft | 20 kts | 270° |
| 2026-04-20 15:37 | 33.43975 | -112.01241 | 1120 ft | 21 kts | 270° |
| 2026-04-20 15:37 | 33.43975 | -112.01403 | 1122 ft | 18 kts | 270° |
| 2026-04-20 15:38 | 33.43975 | -112.01559 | 1123 ft | 20 kts | 270° |
| 2026-04-20 15:38 | 33.43975 | -112.01728 | 1123 ft | 21 kts | 270° |
| 2026-04-20 15:38 | 33.43975 | -112.01892 | 1122 ft | 14 kts | 270° |
| 2026-04-20 15:38 | 33.43978 | -112.02005 | 1122 ft | 11 kts | 285° |
| 2026-04-20 15:39 | 33.44017 | -112.02039 | 1121 ft | 8 kts | 357° |
| 2026-04-20 15:39 | 33.44072 | -112.02002 | 1117 ft | 13 kts | 56° |
| 2026-04-20 15:39 | 33.44085 | -112.01842 | 1122 ft | 38 kts | 90° |
| 2026-04-20 15:39 | 33.44085 | -112.01147 | 1124 ft | 127 kts | 90° |
| 2026-04-20 15:40 | 33.44078 | -111.99874 | 1638 ft | 162 kts | 94° |
| 2026-04-20 15:40 | 33.43955 | -111.98463 | 2554 ft | 178 kts | 97° |
| 2026-04-20 15:40 | 33.43785 | -111.96891 | 3133 ft | 202 kts | 98° |
| 2026-04-20 15:40 | 33.43599 | -111.95181 | 3896 ft | 219 kts | 97° |
| 2026-04-20 15:41 | 33.43506 | -111.93287 | 4766 ft | 235 kts | 91° |
| 2026-04-20 15:41 | 33.43496 | -111.91281 | 5672 ft | 248 kts | 90° |
| 2026-04-20 15:41 | 33.43340 | -111.89172 | 6424 ft | 264 kts | 108° |
| 2026-04-20 15:41 | 33.42487 | -111.87173 | 7173 ft | 276 kts | 125° |
| 2026-04-20 15:42 | 33.41179 | -111.85493 | 8108 ft | 280 kts | 147° |
| 2026-04-20 15:42 | 33.39339 | -111.84747 | 8997 ft | 285 kts | 176° |
| 2026-04-20 15:42 | 33.37394 | -111.85203 | 9838 ft | 291 kts | 206° |
| 2026-04-20 15:42 | 33.35828 | -111.86731 | 10591 ft | 294 kts | 228° |
| 2026-04-20 15:43 | 33.34541 | -111.88652 | 11287 ft | 301 kts | 232° |
| 2026-04-20 15:43 | 33.33270 | -111.90731 | 11695 ft | 318 kts | 234° |
| 2026-04-20 15:43 | 33.32070 | -111.93028 | 12145 ft | 332 kts | 238° |
| 2026-04-20 15:43 | 33.30890 | -111.95431 | 12812 ft | 338 kts | 239° |
| 2026-04-20 15:44 | 33.29720 | -111.97837 | 13564 ft | 341 kts | 239° |
| 2026-04-20 15:44 | 33.28520 | -112.00306 | 14267 ft | 346 kts | 239° |
| 2026-04-20 15:44 | 33.27284 | -112.02849 | 14566 ft | 361 kts | 239° |
| 2026-04-20 15:44 | 33.26000 | -112.05491 | 14942 ft | 372 kts | 239° |
| 2026-04-20 15:45 | 33.24691 | -112.08182 | 15529 ft | 376 kts | 239° |
| 2026-04-20 15:45 | 33.23371 | -112.10896 | 15817 ft | 377 kts | 239° |
| 2026-04-20 15:45 | 33.22048 | -112.13615 | 15905 ft | 379 kts | 239° |
| 2026-04-20 15:45 | 33.20717 | -112.16343 | 15950 ft | 381 kts | 239° |
| 2026-04-20 15:46 | 33.19383 | -112.19080 | 15968 ft | 381 kts | 239° |
| 2026-04-20 15:46 | 33.18045 | -112.21818 | 15983 ft | 381 kts | 239° |
| 2026-04-20 15:46 | 33.16713 | -112.24546 | 15967 ft | 381 kts | 239° |
| 2026-04-20 15:46 | 33.15376 | -112.27280 | 15963 ft | 380 kts | 239° |
| 2026-04-20 15:47 | 33.14043 | -112.30003 | 15965 ft | 380 kts | 239° |
| 2026-04-20 15:47 | 33.12705 | -112.32736 | 15968 ft | 381 kts | 239° |
| 2026-04-20 15:47 | 33.11371 | -112.35460 | 15961 ft | 381 kts | 239° |
| 2026-04-20 15:47 | 33.10032 | -112.38188 | 15957 ft | 381 kts | 239° |
| 2026-04-20 15:48 | 33.08697 | -112.40910 | 15963 ft | 381 kts | 239° |
| 2026-04-20 15:48 | 33.07359 | -112.43634 | 15966 ft | 380 kts | 239° |
| 2026-04-20 15:48 | 33.06021 | -112.46358 | 15964 ft | 381 kts | 239° |
| 2026-04-20 15:48 | 33.04697 | -112.49047 | 15978 ft | 381 kts | 239° |
| 2026-04-20 15:49 | 33.03357 | -112.51767 | 15982 ft | 381 kts | 239° |
| 2026-04-20 15:49 | 33.02017 | -112.54492 | 15978 ft | 381 kts | 239° |
| 2026-04-20 15:49 | 33.00674 | -112.57213 | 15987 ft | 381 kts | 239° |
| 2026-04-20 15:49 | 32.99333 | -112.59932 | 15992 ft | 381 kts | 239° |
| 2026-04-20 15:50 | 32.97992 | -112.62649 | 15995 ft | 380 kts | 239° |
| 2026-04-20 15:50 | 32.96892 | -112.65513 | 16332 ft | 382 kts | 250° |
| 2026-04-20 15:50 | 32.96097 | -112.68547 | 16829 ft | 384 kts | 253° |
| 2026-04-20 15:50 | 32.95385 | -112.71616 | 17300 ft | 387 kts | 255° |
| 2026-04-20 15:51 | 32.94723 | -112.74734 | 17736 ft | 389 kts | 258° |
| 2026-04-20 15:51 | 32.94250 | -112.77908 | 17926 ft | 391 kts | 261° |
| 2026-04-20 15:51 | 32.93804 | -112.81107 | 17974 ft | 392 kts | 261° |
| 2026-04-20 15:51 | 32.93370 | -112.84313 | 17988 ft | 392 kts | 261° |
| 2026-04-20 15:52 | 32.92938 | -112.87509 | 17992 ft | 392 kts | 261° |
| 2026-04-20 15:52 | 32.92505 | -112.90707 | 17992 ft | 392 kts | 261° |
| 2026-04-20 15:52 | 32.92072 | -112.93908 | 17980 ft | 391 kts | 261° |
| 2026-04-20 15:53 | 32.91201 | -113.00302 | 17970 ft | 391 kts | 261° |
| 2026-04-20 15:53 | 32.90763 | -113.03503 | 17976 ft | 391 kts | 261° |
| 2026-04-20 15:53 | 32.90326 | -113.06699 | 17972 ft | 391 kts | 261° |
| 2026-04-20 15:53 | 32.89889 | -113.09892 | 17952 ft | 391 kts | 261° |
| 2026-04-20 15:54 | 32.89451 | -113.13081 | 17956 ft | 390 kts | 261° |
| 2026-04-20 15:54 | 32.89017 | -113.16229 | 17961 ft | 391 kts | 261° |
| 2026-04-20 15:54 | 32.88577 | -113.19418 | 17953 ft | 390 kts | 261° |
| 2026-04-20 15:54 | 32.88136 | -113.22607 | 17952 ft | 390 kts | 261° |
| 2026-04-20 15:55 | 32.87694 | -113.25796 | 17959 ft | 390 kts | 261° |
| 2026-04-20 15:55 | 32.87253 | -113.28977 | 17953 ft | 390 kts | 261° |
| 2026-04-20 15:55 | 32.86811 | -113.32158 | 17952 ft | 390 kts | 261° |
| 2026-04-20 15:55 | 32.86367 | -113.35344 | 17971 ft | 390 kts | 260° |
| 2026-04-20 15:56 | 32.85924 | -113.38523 | 17711 ft | 389 kts | 260° |
| 2026-04-20 15:56 | 32.85482 | -113.41687 | 17383 ft | 387 kts | 260° |
| 2026-04-20 15:56 | 32.85189 | -113.43780 | 17145 ft | 386 kts | 260° |
| 2026-04-20 15:56 | 32.84747 | -113.46929 | 16807 ft | 385 kts | 260° |
| 2026-04-20 15:57 | 32.84307 | -113.50061 | 16473 ft | 383 kts | 259° |
| 2026-04-20 15:57 | 32.83867 | -113.53182 | 16157 ft | 381 kts | 259° |
| 2026-04-20 15:57 | 32.83430 | -113.56275 | 16049 ft | 371 kts | 259° |
| 2026-04-20 15:57 | 32.83016 | -113.59212 | 15863 ft | 353 kts | 259° |
| 2026-04-20 15:58 | 32.82611 | -113.62073 | 15559 ft | 351 kts | 259° |
| 2026-04-20 15:58 | 32.82204 | -113.64939 | 15273 ft | 351 kts | 259° |
| 2026-04-20 15:58 | 32.81802 | -113.67764 | 14997 ft | 350 kts | 259° |
| 2026-04-20 15:58 | 32.81398 | -113.70612 | 14709 ft | 349 kts | 259° |
| 2026-04-20 15:59 | 32.80995 | -113.73451 | 14371 ft | 347 kts | 259° |
| 2026-04-20 15:59 | 32.80591 | -113.76277 | 14021 ft | 345 kts | 259° |
| 2026-04-20 15:59 | 32.80190 | -113.79084 | 13671 ft | 344 kts | 258° |
| 2026-04-20 15:59 | 32.79790 | -113.81883 | 13298 ft | 344 kts | 258° |
| 2026-04-20 16:00 | 32.79386 | -113.84692 | 12857 ft | 344 kts | 258° |
| 2026-04-20 16:00 | 32.78985 | -113.87492 | 12356 ft | 343 kts | 258° |
| 2026-04-20 16:00 | 32.78584 | -113.90284 | 11868 ft | 342 kts | 257° |
| 2026-04-20 16:00 | 32.78197 | -113.93072 | 11380 ft | 340 kts | 259° |
| 2026-04-20 16:01 | 32.78105 | -113.95868 | 10894 ft | 338 kts | 268° |
| 2026-04-20 16:01 | 32.78191 | -113.98645 | 10412 ft | 333 kts | 269° |
| 2026-04-20 16:01 | 32.78210 | -114.01372 | 9947 ft | 328 kts | 265° |
| 2026-04-20 16:01 | 32.78164 | -114.04040 | 9437 ft | 315 kts | 264° |
| 2026-04-20 16:02 | 32.78108 | -114.06588 | 8910 ft | 303 kts | 264° |
| 2026-04-20 16:02 | 32.78051 | -114.09053 | 8409 ft | 294 kts | 265° |
| 2026-04-20 16:02 | 32.78000 | -114.11421 | 7926 ft | 286 kts | 265° |
| 2026-04-20 16:02 | 32.78342 | -114.13710 | 7429 ft | 283 kts | 292° |
| 2026-04-20 16:03 | 32.79416 | -114.15631 | 6963 ft | 275 kts | 307° |
| 2026-04-20 16:03 | 32.80657 | -114.17312 | 6483 ft | 267 kts | 319° |
| 2026-04-20 16:03 | 32.82304 | -114.18256 | 5992 ft | 264 kts | 351° |
| 2026-04-20 16:03 | 32.84089 | -114.18078 | 5496 ft | 255 kts | 21° |
| 2026-04-20 16:04 | 32.85708 | -114.17252 | 5037 ft | 254 kts | 27° |
| 2026-04-20 16:04 | 32.87284 | -114.16315 | 4592 ft | 251 kts | 28° |
| 2026-04-20 16:04 | 32.88864 | -114.15454 | 4130 ft | 250 kts | 14° |
| 2026-04-20 16:04 | 32.90574 | -114.15502 | 3659 ft | 246 kts | 340° |
| 2026-04-20 16:05 | 32.91966 | -114.16606 | 3196 ft | 240 kts | 305° |
| 2026-04-20 16:05 | 32.92545 | -114.18351 | 3079 ft | 222 kts | 269° |
| 2026-04-20 16:05 | 32.92337 | -114.20126 | 3063 ft | 223 kts | 254° |
| 2026-04-20 16:05 | 32.91865 | -114.21904 | 3029 ft | 228 kts | 245° |
| 2026-04-20 16:06 | 32.91208 | -114.23619 | 3032 ft | 227 kts | 242° |
| 2026-04-20 16:06 | 32.90510 | -114.25310 | 3035 ft | 228 kts | 241° |
| 2026-04-20 16:06 | 32.89760 | -114.26960 | 3033 ft | 227 kts | 237° |
| 2026-04-20 16:06 | 32.88946 | -114.28556 | 3006 ft | 222 kts | 236° |
| 2026-04-20 16:07 | 32.88147 | -114.30090 | 2971 ft | 217 kts | 235° |
| 2026-04-20 16:07 | 32.87353 | -114.31608 | 2986 ft | 216 kts | 235° |
| 2026-04-20 16:07 | 32.86541 | -114.33114 | 3024 ft | 216 kts | 231° |
| 2026-04-20 16:07 | 32.85567 | -114.34467 | 2981 ft | 215 kts | 225° |
| 2026-04-20 16:08 | 32.84559 | -114.35769 | 2970 ft | 215 kts | 226° |
| 2026-04-20 16:08 | 32.83602 | -114.37138 | 2913 ft | 215 kts | 230° |
| 2026-04-20 16:08 | 32.82825 | -114.38671 | 2885 ft | 217 kts | 240° |
| 2026-04-20 16:08 | 32.82196 | -114.40303 | 2862 ft | 217 kts | 243° |
| 2026-04-20 16:09 | 32.81581 | -114.41941 | 2831 ft | 216 kts | 237° |
| 2026-04-20 16:09 | 32.80654 | -114.43317 | 2851 ft | 212 kts | 221° |
| 2026-04-20 16:09 | 32.79617 | -114.44489 | 2809 ft | 204 kts | 223° |
| 2026-04-20 16:09 | 32.78628 | -114.45696 | 2805 ft | 203 kts | 223° |
| 2026-04-20 16:10 | 32.77614 | -114.46870 | 2787 ft | 203 kts | 221° |
| 2026-04-20 16:10 | 32.76670 | -114.47953 | 2784 ft | 182 kts | 221° |
| 2026-04-20 16:10 | 32.75756 | -114.49017 | 2773 ft | 182 kts | 221° |
| 2026-04-20 16:10 | 32.74856 | -114.50055 | 2555 ft | 179 kts | 221° |
| 2026-04-20 16:11 | 32.73989 | -114.51059 | 2340 ft | 171 kts | 221° |
| 2026-04-20 16:11 | 32.73154 | -114.52025 | 2111 ft | 163 kts | 221° |
| 2026-04-20 16:11 | 32.72380 | -114.52923 | 1918 ft | 150 kts | 220° |
| 2026-04-20 16:11 | 32.71639 | -114.53771 | 1717 ft | 148 kts | 220° |
| 2026-04-20 16:12 | 32.70911 | -114.54616 | 1506 ft | 146 kts | 220° |
| 2026-04-20 16:12 | 32.70186 | -114.55449 | 1298 ft | 142 kts | 221° |
| 2026-04-20 16:12 | 32.69476 | -114.56266 | 1097 ft | 142 kts | 222° |
| 2026-04-20 16:12 | 32.68768 | -114.57098 | 922 ft | 143 kts | 223° |
| 2026-04-20 16:13 | 32.68066 | -114.57923 | 726 ft | 141 kts | 221° |
| 2026-04-20 16:13 | 32.67366 | -114.58737 | 529 ft | 141 kts | 222° |
| 2026-04-20 16:13 | 32.66658 | -114.59537 | 346 ft | 140 kts | 220° |
| 2026-04-20 16:13 | 32.65970 | -114.60318 | 208 ft | 127 kts | 221° |
| 2026-04-20 16:14 | 32.65421 | -114.60944 | 197 ft | 94 kts | 224° |
| 2026-04-20 16:14 | 32.65208 | -114.61189 | 201 ft | 15 kts | 225° |
| 2026-04-20 16:14 | 32.65167 | -114.61248 | 200 ft | 1 kts | 232° |
| 2026-04-20 16:14 | 32.65162 | -114.61253 | 200 ft | 1 kts | 205° |
| 2026-04-20 16:15 | 32.65926 | -114.59592 | 205 ft | 0 kts | 122° |
| 2026-04-20 16:15 | 32.65926 | -114.59591 | 205 ft | 0 kts | 122° |